Time;durP1;ratioP1;P1;durP2;ratioP2;P2;SDS_P1;SDS_P2;PMS_P1;PMS_P2;Temp;Humidity;BMP_temperature;BMP_pressure;BME280_temperature;BME280_humidity;BME280_pressure;Samples;Min_cycle;Max_cycle;Signal;HPM_P1;HPM_P2
2022/05/22 00:02:15;;;;;;;25.13;10.63;;;;;;;10.37;94.11;101966.53;10400112;28;20044;-75
2022/05/22 00:07:16;;;;;;;13.48;8.05;;;;;;;10.32;94.64;101953.53;10415872;28;20056;-74
2022/05/22 00:12:16;;;;;;;28.83;9.32;;;;;;;10.29;93.69;101958.44;10415266;28;20087;-74
2022/05/22 00:17:17;;;;;;;22.00;10.07;;;;;;;10.22;94.42;101956.38;10417654;28;20087;-74
2022/05/22 00:22:17;;;;;;;11.40;8.18;;;;;;;10.15;93.90;101941.84;10417098;28;20049;-74
2022/05/22 00:27:18;;;;;;;21.42;11.07;;;;;;;10.15;94.12;101947.25;10416900;28;20476;-74
2022/05/22 00:32:18;;;;;;;22.77;11.07;;;;;;;10.17;94.63;101961.44;10418016;28;20057;-74
2022/05/22 00:37:19;;;;;;;27.75;10.60;;;;;;;10.18;94.54;101954.19;10414692;28;20492;-74
2022/05/22 00:42:20;;;;;;;21.40;11.73;;;;;;;10.15;95.19;101955.38;10415098;28;20040;-74
2022/05/22 00:47:22;;;;;;;20.48;10.70;;;;;;;10.07;95.02;101943.69;10397478;28;20033;-75
2022/05/22 00:52:41;;;;;;;12.02;8.82;;;;;;;10.11;95.25;101924.22;10419054;28;20044;-74
2022/05/22 00:57:45;;;;;;;21.73;9.57;;;;;;;10.15;95.99;101930.16;10422362;28;20036;-74
2022/05/22 01:08:05;;;;;;;22.42;10.85;;;;;;;10.06;95.54;101942.00;10407602;28;20055;-74
2022/05/22 01:13:06;;;;;;;17.73;10.25;;;;;;;10.09;95.61;101945.22;10423113;28;20038;-74
2022/05/22 01:18:06;;;;;;;26.98;11.80;;;;;;;10.07;95.53;101946.38;10420408;28;20052;-74
2022/05/22 01:23:06;;;;;;;17.10;10.05;;;;;;;10.07;95.30;101927.44;10422038;28;20025;-74
2022/05/22 01:28:08;;;;;;;22.20;10.02;;;;;;;10.02;95.47;101915.28;10404797;28;20049;-74
2022/05/22 01:33:08;;;;;;;13.75;10.32;;;;;;;10.01;95.69;101908.16;10405563;28;20071;-75
2022/05/22 01:38:09;;;;;;;18.00;12.25;;;;;;;10.02;96.35;101899.03;10421297;28;20095;-74
2022/05/22 01:43:09;;;;;;;21.70;13.00;;;;;;;9.94;95.86;101880.09;10402849;28;20056;-75
2022/05/22 01:48:10;;;;;;;18.38;11.80;;;;;;;9.90;95.65;101884.16;10403070;28;20037;-73
2022/05/22 01:53:10;;;;;;;18.73;9.48;;;;;;;9.89;96.16;101885.19;10421712;28;20115;-74
2022/05/22 01:58:11;;;;;;;15.68;9.63;;;;;;;9.85;97.66;101875.69;10420749;28;20087;-74
2022/05/22 02:03:11;;;;;;;19.15;10.90;;;;;;;9.90;98.80;101872.50;10424718;28;20085;-74
2022/05/22 02:08:22;;;;;;;16.90;11.43;;;;;;;9.82;97.77;101870.59;10423140;28;20377;-74
2022/05/22 02:13:24;;;;;;;29.13;11.50;;;;;;;9.84;97.87;101867.75;10405232;28;20128;-74
2022/05/22 02:18:24;;;;;;;27.73;11.60;;;;;;;9.80;98.26;101856.44;10421001;28;20416;-74
2022/05/22 02:23:25;;;;;;;20.20;11.48;;;;;;;9.75;97.36;101854.22;10403174;28;20092;-75
2022/05/22 02:28:26;;;;;;;19.73;9.77;;;;;;;9.71;97.51;101858.28;10402541;28;20057;-74
2022/05/22 02:33:26;;;;;;;13.55;9.50;;;;;;;9.67;98.09;101850.69;10418738;28;20057;-74
2022/05/22 02:38:27;;;;;;;34.58;10.88;;;;;;;9.65;97.84;101844.59;10420212;28;20037;-74
2022/05/22 02:43:27;;;;;;;13.77;9.30;;;;;;;9.62;97.98;101834.09;10402264;28;20102;-76
2022/05/22 02:48:28;;;;;;;17.50;9.45;;;;;;;9.54;97.23;101835.78;10421503;28;20037;-74
2022/05/22 02:53:28;;;;;;;19.50;9.55;;;;;;;9.51;97.24;101843.41;10417966;28;20345;-74
2022/05/22 02:58:28;;;;;;;23.38;10.40;;;;;;;9.45;96.95;101844.06;10418311;28;20030;-74
2022/05/22 03:03:29;;;;;;;15.55;9.38;;;;;;;9.44;96.95;101834.25;10400490;28;20037;-75
2022/05/22 03:08:32;;;;;;;19.92;9.63;;;;;;;9.44;98.85;101834.25;10417078;28;20120;-75
2022/05/22 03:13:33;;;;;;;28.75;20.38;;;;;;;9.48;100.00;101831.06;10416758;28;20469;-73
2022/05/22 03:18:33;;;;;;;26.85;19.60;;;;;;;9.51;98.78;101832.59;10419588;28;20033;-74
2022/05/22 03:23:37;;;;;;;29.65;17.42;;;;;;;9.45;98.09;101827.84;10417818;28;20033;-73
2022/05/22 03:28:37;;;;;;;20.35;13.75;;;;;;;9.46;99.62;101821.41;10416988;28;20140;-74
2022/05/22 03:33:38;;;;;;;28.00;13.20;;;;;;;9.37;98.37;101801.63;10399263;28;20040;-74
2022/05/22 03:38:39;;;;;;;24.42;12.90;;;;;;;9.41;98.83;101807.53;10415562;28;20030;-75
2022/05/22 03:43:39;;;;;;;22.58;13.40;;;;;;;9.40;98.97;101800.47;10415971;28;20489;-75
2022/05/22 03:48:40;;;;;;;20.05;11.52;;;;;;;9.45;98.83;101803.50;10383458;28;20022;-75
2022/05/22 03:53:41;;;;;;;33.30;11.32;;;;;;;9.49;98.80;101791.34;10399025;28;20038;-73
2022/05/22 03:58:41;;;;;;;22.95;11.80;;;;;;;9.56;99.53;101805.88;10417723;28;20033;-74
2022/05/22 04:03:42;;;;;;;15.65;10.23;;;;;;;9.63;99.46;101789.81;10382241;28;20125;-74
2022/05/22 04:08:42;;;;;;;21.77;10.77;;;;;;;9.69;99.60;101784.56;10398621;28;20392;-74
2022/05/22 04:13:43;;;;;;;15.85;9.07;;;;;;;9.78;99.58;101794.38;10417023;28;20103;-74
2022/05/22 04:18:43;;;;;;;16.55;9.88;;;;;;;9.88;99.25;101788.78;10398266;28;20030;-74
2022/05/22 04:29:03;;;;;;;16.45;8.77;;;;;;;10.13;100.00;101786.03;10420426;28;20058;-74
2022/05/22 04:34:03;;;;;;;19.20;9.07;;;;;;;10.27;99.89;101792.63;10425433;28;20112;-76
2022/05/22 04:39:04;;;;;;;13.95;9.48;;;;;;;10.35;100.00;101785.31;10426844;28;20099;-74
2022/05/22 04:44:05;;;;;;;14.25;8.77;;;;;;;10.50;100.00;101776.44;10426959;28;20033;-74
2022/05/22 04:49:06;;;;;;;12.65;9.02;;;;;;;10.74;100.00;101776.34;10389735;28;20034;-74
2022/05/22 04:54:06;;;;;;;11.23;7.90;;;;;;;12.01;100.00;101771.34;10423310;28;20497;-75
2022/05/22 04:59:06;;;;;;;14.18;8.93;;;;;;;13.01;100.00;101777.03;10423440;28;20358;-75
2022/05/22 05:04:07;;;;;;;10.88;7.72;;;;;;;13.76;100.00;101772.16;10404598;28;20503;-75
2022/05/22 05:09:07;;;;;;;16.80;7.13;;;;;;;14.30;100.00;101759.75;10405773;28;20037;-74
2022/05/22 05:14:07;;;;;;;14.05;7.35;;;;;;;14.74;100.00;101775.72;10422228;28;20049;-74
2022/05/22 05:19:08;;;;;;;9.60;5.50;;;;;;;15.26;100.00;101793.28;10422352;28;20413;-74
2022/05/22 05:24:08;;;;;;;15.77;5.72;;;;;;;15.69;100.00;101783.88;10422562;28;20033;-74
2022/05/22 05:29:09;;;;;;;17.40;5.65;;;;;;;16.07;100.00;101788.72;10421405;28;20049;-75
2022/05/22 05:34:10;;;;;;;12.90;6.03;;;;;;;16.62;99.19;101786.47;10404987;28;20049;-74
2022/05/22 05:39:11;;;;;;;8.60;4.70;;;;;;;16.80;100.00;101788.53;10405226;28;20046;-75
2022/05/22 05:44:11;;;;;;;10.05;4.32;;;;;;;16.92;100.00;101784.06;10420889;28;20041;-74
2022/05/22 05:49:12;;;;;;;9.75;4.38;;;;;;;17.13;99.53;101781.00;10426658;28;20115;-77
2022/05/22 05:54:13;;;;;;;14.05;4.70;;;;;;;17.42;95.98;101779.53;10425996;28;20038;-74
2022/05/22 05:59:13;;;;;;;9.13;5.13;;;;;;;17.72;92.58;101773.41;10420728;28;20084;-75
2022/05/22 06:04:14;;;;;;;6.68;4.30;;;;;;;18.08;90.82;101772.66;10403194;28;20037;-74
2022/05/22 06:09:14;;;;;;;10.68;3.95;;;;;;;18.56;91.74;101765.59;10420180;28;20385;-75
2022/05/22 06:14:16;;;;;;;7.28;3.90;;;;;;;18.73;86.74;101769.47;10420107;28;20042;-75
2022/05/22 06:19:53;;;;;;;13.57;4.80;;;;;;;19.32;87.57;101768.84;10401831;28;20491;-75
2022/05/22 06:24:36;;;;;;;9.13;3.85;;;;;;;19.39;79.89;101769.56;10420559;28;20033;-75
2022/05/22 06:29:38;;;;;;;4.60;4.20;;;;;;;19.56;78.51;101767.84;10420393;28;20049;-77
2022/05/22 06:34:41;;;;;;;8.27;3.90;;;;;;;19.86;75.30;101773.25;10402055;28;20052;-75
2022/05/22 06:39:50;;;;;;;6.78;4.10;;;;;;;20.14;75.11;101774.47;10401876;28;20065;-76
2022/05/22 06:45:06;;;;;;;3.15;2.72;;;;;;;20.04;72.31;101768.72;10420347;28;20041;-75
2022/05/22 06:50:09;;;;;;;7.90;3.30;;;;;;;20.15;74.20;101779.72;10402628;28;20440;-74
2022/05/22 06:55:10;;;;;;;9.52;3.42;;;;;;;20.36;74.08;101769.19;10402274;28;20091;-76
2022/05/22 07:00:14;;;;;;;11.63;3.05;;;;;;;20.45;72.62;101778.72;10423475;28;20037;-77
2022/05/22 07:05:14;;;;;;;15.30;3.42;;;;;;;21.29;75.44;101769.97;10407635;28;20116;-75
2022/05/22 07:10:15;;;;;;;6.63;3.30;;;;;;;21.93;67.21;101758.66;10384763;28;20520;-77
2022/05/22 07:15:15;;;;;;;14.48;3.03;;;;;;;21.79;70.34;101758.13;10419546;28;20059;-76
2022/05/22 07:20:16;;;;;;;4.40;2.83;;;;;;;21.73;71.32;101765.50;10418873;28;20049;-75
2022/05/22 07:25:16;;;;;;;9.13;2.70;;;;;;;22.63;71.56;101757.97;10401029;28;20532;-76
2022/05/22 07:30:16;;;;;;;5.00;3.00;;;;;;;23.02;64.26;101755.13;10384110;28;20076;-75
2022/05/22 07:35:17;;;;;;;11.38;3.15;;;;;;;23.17;61.82;101754.47;10417121;28;20037;-76
2022/05/22 07:40:17;;;;;;;3.17;2.28;;;;;;;23.51;64.00;101755.03;10418382;28;20484;-75
2022/05/22 07:45:18;;;;;;;4.93;2.78;;;;;;;23.93;66.72;101740.47;10383627;28;20457;-76
2022/05/22 07:50:21;;;;;;;8.98;2.90;;;;;;;24.05;56.50;101740.25;10417156;28;20461;-76
2022/05/22 07:55:21;;;;;;;3.80;2.05;;;;;;;24.11;51.92;101725.34;10416349;28;20030;-75
2022/05/22 08:00:22;;;;;;;4.00;3.05;;;;;;;24.32;51.16;101735.41;10397518;28;20037;-76
2022/05/22 08:05:22;;;;;;;2.45;2.13;;;;;;;24.23;46.21;101725.97;10398537;28;20029;-75
2022/05/22 08:10:23;;;;;;;6.10;2.67;;;;;;;23.74;51.43;101715.16;10399475;28;20129;-76
2022/05/22 08:15:24;;;;;;;4.70;3.00;;;;;;;24.96;48.75;101711.28;10399633;28;20120;-76
2022/05/22 08:20:25;;;;;;;4.03;2.40;;;;;;;25.15;55.86;101703.31;10406624;28;20033;-76
2022/05/22 08:25:26;;;;;;;3.42;2.70;;;;;;;25.34;50.15;101687.78;10398204;28;20038;-74
2022/05/22 08:30:28;;;;;;;6.88;2.75;;;;;;;25.42;55.09;101691.94;10397141;28;20057;-71
2022/05/22 08:35:31;;;;;;;7.03;2.45;;;;;;;26.15;51.12;101688.75;10398485;28;20103;-72
2022/05/22 08:40:53;;;;;;;6.00;3.35;;;;;;;25.29;42.78;101677.50;10414850;28;20056;-68
2022/05/22 08:45:58;;;;;;;7.95;3.45;;;;;;;24.72;49.11;101675.75;10396703;28;20219;-69
2022/05/22 08:51:00;;;;;;;3.77;2.83;;;;;;;25.43;43.78;101666.72;10397871;28;20060;-69
2022/05/22 09:01:51;;;;;;;5.20;2.95;;;;;;;25.90;45.64;101664.69;10399870;28;20037;-70
2022/05/22 09:07:07;;;;;;;4.00;2.78;;;;;;;26.15;44.46;101647.13;10407396;28;20469;-67
2022/05/22 09:12:19;;;;;;;4.38;2.53;;;;;;;26.04;38.72;101643.56;10416431;28;20057;-67
2022/05/22 09:17:25;;;;;;;2.47;2.35;;;;;;;25.49;44.54;101639.78;10405171;28;20040;-67
2022/05/22 09:22:32;;;;;;;2.97;2.58;;;;;;;25.75;44.89;101624.75;10404994;28;20034;-66
2022/05/22 09:27:52;;;;;;;5.82;2.72;;;;;;;25.77;47.68;101620.88;10422289;28;20061;-67
2022/05/22 09:33:02;;;;;;;11.75;2.85;;;;;;;25.94;45.89;101624.16;10405931;28;20037;-69
2022/05/22 09:38:26;;;;;;;4.53;2.47;;;;;;;25.98;40.87;101605.84;10422067;28;20420;-71
2022/05/22 09:43:39;;;;;;;3.83;2.50;;;;;;;26.02;39.48;101606.09;10369851;28;20041;-77
2022/05/22 09:48:53;;;;;;;4.88;2.35;;;;;;;26.51;44.04;101608.91;10422508;28;20033;-75
2022/05/22 09:54:00;;;;;;;9.23;2.05;;;;;;;26.37;36.59;101607.84;10403904;28;20034;-74
2022/05/22 09:59:13;;;;;;;2.97;1.85;;;;;;;26.37;43.08;101607.84;10409767;28;20120;-74
2022/05/22 10:04:41;;;;;;;2.30;1.70;;;;;;;27.16;38.82;101602.34;10420539;28;20504;-76
2022/05/22 10:10:15;;;;;;;4.93;2.67;;;;;;;26.97;34.71;101602.19;10420022;28;20440;-72
2022/05/22 10:15:40;;;;;;;2.92;2.38;;;;;;;25.63;40.72;101599.28;10418401;28;20041;-70
2022/05/22 10:21:11;;;;;;;5.68;2.47;;;;;;;27.28;42.80;101580.50;10419223;28;20045;-69
2022/05/22 10:26:31;;;;;;;15.40;2.95;;;;;;;27.81;38.30;101578.53;10419602;28;20033;-69
2022/05/22 10:31:38;;;;;;;7.20;2.33;;;;;;;26.68;40.05;101572.41;10418487;28;20095;-69
2022/05/22 10:36:41;;;;;;;3.72;2.85;;;;;;;27.30;40.55;101558.81;10402049;28;20041;-70
2022/05/22 10:47:31;;;;;;;3.63;2.25;;;;;;;28.21;32.17;101536.53;10403447;28;20029;-70
2022/05/22 10:52:33;;;;;;;4.25;3.10;;;;;;;27.43;37.97;101541.41;10418107;28;20041;-70
2022/05/22 10:57:33;;;;;;;8.40;3.20;;;;;;;26.92;39.83;101541.91;10418280;28;20110;-69
2022/05/22 11:02:34;;;;;;;2.83;2.63;;;;;;;27.07;38.69;101538.97;10417539;28;20457;-69
2022/05/22 11:07:46;;;;;;;4.90;2.58;;;;;;;28.01;37.28;101529.28;10400166;28;20057;-69
2022/05/22 11:12:46;;;;;;;3.03;2.65;;;;;;;27.38;35.24;101533.13;10402099;28;20373;-69
2022/05/22 11:17:48;;;;;;;10.60;3.47;;;;;;;26.26;42.07;101526.59;10399989;28;20037;-70
2022/05/22 11:23:03;;;;;;;6.15;3.95;;;;;;;27.77;38.23;101516.25;10382845;28;20044;-69
2022/05/22 11:28:48;;;;;;;3.73;3.40;;;;;;;28.13;33.59;101509.34;10383254;28;20103;-71
2022/05/22 11:34:16;;;;;;;3.35;2.80;;;;;;;27.32;33.80;101503.72;10413412;28;20037;-69
2022/05/22 11:39:41;;;;;;;7.97;4.30;;;;;;;27.18;35.54;101494.41;10399396;28;20087;-70
2022/05/22 11:44:56;;;;;;;2.85;2.65;;;;;;;28.09;40.32;101480.47;10416393;28;20399;-68
2022/05/22 11:50:28;;;;;;;9.52;3.47;;;;;;;28.22;37.01;101472.16;10415278;28;20025;-70
2022/05/22 11:55:40;;;;;;;7.22;2.75;;;;;;;27.92;34.33;101473.47;10415289;28;20092;-70
2022/05/22 12:01:20;;;;;;;5.32;3.30;;;;;;;27.83;33.65;101461.34;10414163;28;20358;-69
2022/05/22 12:06:43;;;;;;;3.60;2.45;;;;;;;28.32;39.87;101443.31;10388612;28;20485;-69
2022/05/22 12:11:56;;;;;;;2.50;2.30;;;;;;;29.47;31.26;101445.38;10414257;28;20037;-69
2022/05/22 12:17:18;;;;;;;3.40;2.13;;;;;;;28.62;33.15;101421.66;10398049;28;20033;-70
2022/05/22 12:23:07;;;;;;;1.92;1.80;;;;;;;27.65;32.64;101420.41;10412972;28;20037;-69
2022/05/22 12:27:43;;;;;;;2.72;2.50;;;;;;;27.58;34.22;101407.69;10401878;28;20033;-70
2022/05/22 12:33:00;;;;;;;1.80;1.70;;;;;;;27.06;32.47;101412.25;10397384;28;20144;-70
2022/05/22 12:38:01;;;;;;;5.90;2.08;;;;;;;26.62;33.19;101402.16;10415515;28;20034;-70
2022/05/22 12:43:03;;;;;;;3.25;2.05;;;;;;;26.74;33.73;101396.22;10414714;28;20121;-68
2022/05/22 12:48:23;;;;;;;18.38;1.95;;;;;;;27.75;37.55;101384.06;10399679;28;20116;-72
2022/05/22 12:53:28;;;;;;;5.15;3.78;;;;;;;27.92;31.09;101376.06;10423460;28;20053;-74
2022/05/22 12:58:40;;;;;;;1.70;1.60;;;;;;;27.33;34.23;101380.22;10389059;28;20075;-74
2022/05/22 13:03:41;;;;;;;5.65;2.28;;;;;;;27.57;33.14;101374.63;10421830;28;20411;-74
2022/05/22 13:08:43;;;;;;;6.85;2.28;;;;;;;28.27;35.86;101359.84;10421464;28;20039;-75
2022/05/22 13:13:51;;;;;;;2.75;2.35;;;;;;;27.47;33.53;101367.25;10406198;28;20037;-74
2022/05/22 13:18:51;;;;;;;2.33;2.05;;;;;;;26.80;32.45;101358.06;10404203;28;20029;-74
2022/05/22 13:24:01;;;;;;;3.20;2.67;;;;;;;27.24;36.90;101340.31;10421744;28;20106;-73
2022/05/22 13:29:07;;;;;;;3.63;2.78;;;;;;;27.83;34.93;101336.13;10421021;28;20106;-73
2022/05/22 13:34:07;;;;;;;2.42;2.22;;;;;;;26.76;34.69;101338.38;10419927;28;20033;-72
2022/05/22 13:39:16;;;;;;;3.23;2.87;;;;;;;26.57;35.34;101329.97;10425611;28;20039;-71
2022/05/22 13:44:38;;;;;;;2.45;2.15;;;;;;;27.18;37.70;101327.59;10420602;28;20029;-72
2022/05/22 13:49:44;;;;;;;2.92;2.72;;;;;;;27.43;34.21;101318.88;10419662;28;20200;-71
2022/05/22 13:55:18;;;;;;;2.83;2.53;;;;;;;26.57;33.28;101310.53;10420572;28;20053;-72
2022/05/22 14:00:23;;;;;;;12.35;2.78;;;;;;;26.26;35.99;101301.69;10384732;28;20520;-72
2022/05/22 14:05:41;;;;;;;4.97;2.88;;;;;;;26.13;34.11;101302.34;10403846;28;20030;-72
2022/05/22 14:10:41;;;;;;;8.68;3.47;;;;;;;26.09;36.69;101276.31;10403327;28;20136;-72
2022/05/22 14:16:06;;;;;;;5.80;3.65;;;;;;;25.71;36.67;101284.38;10422519;28;20377;-73
2022/05/22 14:21:08;;;;;;;6.65;3.10;;;;;;;25.38;35.73;101274.94;10417149;28;20030;-73
2022/05/22 14:26:13;;;;;;;3.67;3.30;;;;;;;24.73;37.62;101281.38;10401689;28;20033;-73
2022/05/22 14:31:14;;;;;;;5.05;3.47;;;;;;;24.67;38.45;101274.19;10312751;28;20513;-72
2022/05/22 14:36:17;;;;;;;12.18;4.40;;;;;;;25.64;39.73;101272.81;10360580;28;20026;-74
2022/05/22 14:41:26;;;;;;;5.18;4.30;;;;;;;25.67;37.80;101264.72;10360254;28;20034;-73
2022/05/22 14:46:49;;;;;;;7.82;4.95;;;;;;;25.60;37.54;101253.16;10360825;28;20042;-73
2022/05/22 14:51:57;;;;;;;6.60;4.47;;;;;;;25.62;38.28;101253.69;10360516;28;20050;-73
2022/05/22 14:57:08;;;;;;;8.77;4.38;;;;;;;25.37;39.16;101240.03;10365328;28;20041;-73
2022/05/22 15:02:16;;;;;;;7.13;4.30;;;;;;;25.39;37.77;101246.09;10377109;28;20034;-72
2022/05/22 15:07:22;;;;;;;4.70;4.18;;;;;;;25.16;40.16;101234.63;10361669;28;20040;-72
2022/05/22 15:12:25;;;;;;;13.65;4.10;;;;;;;25.61;40.41;101229.00;10377788;28;20030;-73
2022/05/22 15:17:36;;;;;;;4.05;3.08;;;;;;;25.59;38.50;101228.47;10378086;28;20041;-72
2022/05/22 15:28:25;;;;;;;6.57;4.28;;;;;;;24.69;37.92;101218.50;10362210;28;20034;-72
2022/05/22 15:33:45;;;;;;;6.88;3.28;;;;;;;24.93;40.96;101207.59;10399814;28;20041;-72
2022/05/22 15:39:12;;;;;;;4.78;4.45;;;;;;;24.65;40.05;101212.72;10417065;28;20044;-72
2022/05/22 15:44:12;;;;;;;7.00;4.20;;;;;;;24.13;40.89;101206.53;10417389;28;20032;-73
2022/05/22 15:54:32;;;;;;;7.05;4.13;;;;;;;23.95;41.61;101190.50;10400972;28;20041;-73
2022/05/22 15:59:33;;;;;;;8.77;5.35;;;;;;;24.08;42.82;101189.09;10398036;28;20380;-72
2022/05/22 16:04:34;;;;;;;12.90;5.35;;;;;;;24.00;42.72;101182.22;10397916;28;20170;-73
2022/05/22 16:09:34;;;;;;;5.22;4.00;;;;;;;23.61;42.26;101170.91;10401998;28;20099;-72
2022/05/22 16:14:34;;;;;;;5.97;4.82;;;;;;;23.55;43.48;101160.97;10415370;28;20042;-72
2022/05/22 16:19:39;;;;;;;8.35;4.88;;;;;;;23.50;43.55;101160.97;10414583;28;20088;-73
2022/05/22 16:24:39;;;;;;;4.68;4.28;;;;;;;23.11;43.61;101147.72;10413553;28;20053;-73
2022/05/22 16:29:39;;;;;;;10.25;6.05;;;;;;;22.68;44.47;101149.81;10383308;28;20064;-72
2022/05/22 16:34:40;;;;;;;7.65;4.57;;;;;;;22.24;45.24;101141.97;10419197;28;20057;-73
2022/05/22 16:39:40;;;;;;;15.43;4.93;;;;;;;22.18;45.33;101124.56;10402773;28;20034;-72
2022/05/22 16:44:41;;;;;;;8.05;6.10;;;;;;;22.38;45.76;101121.03;10398569;28;20461;-72
2022/05/22 16:55:01;;;;;;;8.77;4.65;;;;;;;22.56;45.83;101113.34;10414124;28;20045;-73
2022/05/22 17:00:02;;;;;;;9.45;4.35;;;;;;;22.71;46.21;101099.59;10398911;28;20045;-73
2022/05/22 17:05:02;;;;;;;10.05;3.00;;;;;;;22.47;46.87;101102.03;10396743;28;20030;-73
2022/05/22 17:10:03;;;;;;;4.80;3.35;;;;;;;22.30;47.50;101096.72;10396796;28;20376;-73
2022/05/22 17:15:04;;;;;;;7.53;3.78;;;;;;;22.12;47.94;101094.44;10413837;28;20350;-73
2022/05/22 17:20:05;;;;;;;11.00;3.40;;;;;;;21.86;48.82;101105.38;10415174;28;20033;-73
2022/05/22 17:25:07;;;;;;;10.43;6.03;;;;;;;21.77;49.02;101088.50;10404033;28;20044;-73
2022/05/22 17:30:08;;;;;;;5.03;4.57;;;;;;;21.60;49.74;101087.81;10396622;28;20064;-73
2022/05/22 17:35:10;;;;;;;6.22;4.95;;;;;;;21.59;49.86;101084.25;10417023;28;20057;-73
2022/05/22 17:40:24;;;;;;;10.20;3.80;;;;;;;21.48;50.74;101077.03;10420264;28;20033;-73
2022/05/22 17:45:24;;;;;;;4.93;3.17;;;;;;;21.33;51.03;101071.38;10402588;28;20039;-73
2022/05/22 17:50:25;;;;;;;8.25;5.10;;;;;;;21.23;51.36;101066.63;10402726;28;20040;-72
2022/05/22 17:55:26;;;;;;;4.00;2.88;;;;;;;21.10;52.28;101062.41;10402610;28;20041;-73
2022/05/22 18:00:27;;;;;;;3.42;2.38;;;;;;;20.89;53.57;101055.91;10387482;28;20033;-73
2022/05/22 18:05:27;;;;;;;11.63;4.57;;;;;;;20.79;53.08;101058.56;10420129;28;20061;-73
2022/05/22 18:16:01;;;;;;;6.57;3.88;;;;;;;20.77;54.14;101046.16;10419921;28;20045;-73
2022/05/22 18:21:03;;;;;;;6.28;3.80;;;;;;;20.61;55.56;101040.53;10420075;28;20104;-73
2022/05/22 18:26:04;;;;;;;9.52;4.07;;;;;;;20.43;55.60;101040.88;10419217;28;20029;-73
2022/05/22 18:31:07;;;;;;;3.78;3.47;;;;;;;20.12;58.89;101034.22;10419896;28;20085;-73
2022/05/22 18:36:08;;;;;;;18.20;5.43;;;;;;;19.91;58.12;101038.63;10402737;28;20069;-73
2022/05/22 18:41:09;;;;;;;6.80;3.55;;;;;;;19.75;57.95;101032.16;10412275;28;20041;-72
2022/05/22 18:46:10;;;;;;;10.73;4.20;;;;;;;19.57;58.80;101033.25;10416391;28;20033;-72
2022/05/22 18:51:10;;;;;;;9.07;2.92;;;;;;;19.39;60.70;101026.13;10400319;28;20044;-73
2022/05/22 18:56:22;;;;;;;13.07;3.95;;;;;;;19.26;60.20;101016.31;10419367;28;20029;-72
2022/05/22 19:01:24;;;;;;;4.10;3.35;;;;;;;19.13;61.49;101015.84;10385537;28;20033;-74
2022/05/22 19:06:27;;;;;;;6.70;3.38;;;;;;;19.07;62.14;101017.69;10417528;28;20103;-74
2022/05/22 19:11:28;;;;;;;12.02;3.78;;;;;;;18.94;61.05;101010.63;10416194;28;20029;-73
2022/05/22 19:16:33;;;;;;;11.48;4.10;;;;;;;18.85;62.70;100997.56;10399765;28;20126;-73
2022/05/22 19:21:33;;;;;;;7.28;2.90;;;;;;;18.82;61.84;101009.88;10399456;28;20030;-73
2022/05/22 19:26:34;;;;;;;4.70;3.05;;;;;;;18.76;61.84;101005.38;10416776;28;20030;-74
2022/05/22 19:31:43;;;;;;;14.63;4.45;;;;;;;18.66;61.99;100995.03;10398887;28;20080;-73
2022/05/22 19:36:43;;;;;;;10.85;4.95;;;;;;;18.53;66.62;100990.72;10399040;28;20025;-73
2022/05/22 19:47:04;;;;;;;5.47;4.93;;;;;;;18.34;66.13;100975.56;10416497;28;20033;-73
2022/05/22 19:52:04;;;;;;;12.40;4.93;;;;;;;18.32;66.31;100978.59;10419685;28;20033;-73
2022/05/22 20:02:29;;;;;;;8.85;5.53;;;;;;;18.46;68.53;100967.28;10401023;28;20041;-73
2022/05/22 20:07:29;;;;;;;6.97;5.68;;;;;;;18.49;67.04;100969.53;10415844;28;20034;-74
2022/05/22 20:12:30;;;;;;;8.13;7.13;;;;;;;18.45;68.15;100963.72;10382177;28;20498;-72
2022/05/22 20:17:30;;;;;;;8.73;7.82;;;;;;;18.43;68.06;100967.78;10415512;28;20358;-73
2022/05/22 20:22:31;;;;;;;8.50;6.80;;;;;;;18.45;66.91;100957.41;10414170;28;20118;-73
2022/05/22 20:27:31;;;;;;;10.35;6.78;;;;;;;18.46;66.51;100957.16;10414476;28;20116;-70
2022/05/22 20:32:31;;;;;;;12.02;7.82;;;;;;;18.51;66.17;100961.91;10397661;28;20462;-71
2022/05/22 20:37:32;;;;;;;9.45;7.72;;;;;;;18.54;65.85;100961.41;10416289;28;20033;-72
2022/05/22 20:42:32;;;;;;;8.00;7.20;;;;;;;18.51;67.47;100945.47;10380856;28;20493;-72
2022/05/22 20:47:34;;;;;;;9.90;7.60;;;;;;;18.47;68.62;100938.78;10397280;28;20120;-71
2022/05/22 20:52:35;;;;;;;7.85;6.63;;;;;;;18.46;67.95;100929.72;10414989;28;20369;-71
2022/05/22 20:57:35;;;;;;;19.73;6.35;;;;;;;18.43;68.42;100924.75;10414169;28;20042;-72
2022/05/22 21:02:35;;;;;;;12.20;5.78;;;;;;;18.37;69.36;100923.00;10414634;28;20128;-69
2022/05/22 21:07:36;;;;;;;12.63;6.25;;;;;;;18.27;70.43;100915.44;10404742;28;20368;-72
2022/05/22 21:12:36;;;;;;;14.32;5.20;;;;;;;18.21;70.76;100910.94;10406090;28;20038;-72
2022/05/22 21:17:39;;;;;;;7.18;6.40;;;;;;;18.21;70.22;100902.72;10423776;28;20069;-72
2022/05/22 21:22:40;;;;;;;10.57;6.28;;;;;;;18.28;69.11;100902.56;10421684;28;20065;-72
2022/05/22 21:32:59;;;;;;;16.30;7.95;;;;;;;18.21;69.78;100891.75;10381343;28;20421;-73
2022/05/22 21:37:59;;;;;;;12.68;6.78;;;;;;;18.22;68.70;100892.56;10346202;28;20037;-72
2022/05/22 21:43:01;;;;;;;23.75;7.65;;;;;;;18.17;69.71;100887.03;10380248;28;20077;-72
2022/05/22 21:48:02;;;;;;;10.23;7.18;;;;;;;18.08;71.30;100886.59;10381613;28;20067;-73
2022/05/22 21:53:02;;;;;;;19.80;7.78;;;;;;;18.08;69.66;100878.38;10379317;28;20038;-74
2022/05/22 21:58:03;;;;;;;9.40;8.35;;;;;;;18.04;69.63;100880.78;10379891;28;20030;-73
2022/05/22 22:03:06;;;;;;;17.10;7.70;;;;;;;17.98;69.57;100876.28;10362481;28;20064;-72
2022/05/22 22:08:07;;;;;;;8.70;7.32;;;;;;;17.95;69.85;100875.97;10380199;28;20038;-71
2022/05/22 22:13:07;;;;;;;9.18;7.50;;;;;;;17.82;70.46;100858.75;10361681;28;20037;-72
2022/05/22 22:18:08;;;;;;;12.48;7.45;;;;;;;17.75;71.23;100852.56;10379014;28;20404;-72
2022/05/22 22:23:08;;;;;;;14.27;7.50;;;;;;;17.67;72.45;100851.03;10380824;28;20037;-73
2022/05/22 22:28:09;;;;;;;11.88;7.93;;;;;;;17.58;72.61;100829.78;10367282;28;20042;-73
2022/05/22 22:33:14;;;;;;;18.00;6.63;;;;;;;17.58;71.88;100832.53;10419487;28;20034;-72
2022/05/22 22:38:14;;;;;;;12.32;8.40;;;;;;;17.47;72.61;100833.44;10417976;28;20037;-72
2022/05/22 22:43:16;;;;;;;14.18;7.68;;;;;;;17.36;73.66;100822.28;10418867;28;20503;-73
2022/05/22 22:48:16;;;;;;;15.13;8.02;;;;;;;17.30;72.80;100815.06;10418941;28;20056;-72
2022/05/22 22:53:18;;;;;;;10.45;8.30;;;;;;;17.31;72.53;100824.91;10418989;28;20243;-73
2022/05/22 22:58:24;;;;;;;9.80;7.38;;;;;;;17.18;73.53;100808.78;10419475;28;20029;-72
2022/05/22 23:03:25;;;;;;;13.48;6.82;;;;;;;17.12;73.01;100815.22;10418714;28;20388;-72
2022/05/22 23:08:25;;;;;;;14.18;8.00;;;;;;;16.98;74.16;100824.81;10418413;28;20121;-73
2022/05/22 23:13:26;;;;;;;8.13;6.75;;;;;;;16.90;72.29;100823.25;10417778;28;20366;-72
2022/05/22 23:18:27;;;;;;;11.07;7.60;;;;;;;16.78;73.25;100811.50;10418764;28;20029;-72
2022/05/22 23:23:27;;;;;;;8.70;7.80;;;;;;;16.56;75.95;100790.25;10417127;28;20358;-72
2022/05/22 23:28:28;;;;;;;17.10;8.43;;;;;;;16.49;77.81;100795.00;10415080;28;20500;-73
2022/05/22 23:33:28;;;;;;;10.15;8.38;;;;;;;16.52;76.10;100799.97;10400266;28;20041;-72
2022/05/22 23:39:14;;;;;;;13.50;8.52;;;;;;;16.54;75.93;100778.72;10407337;28;20040;-72
2022/05/22 23:43:49;;;;;;;9.95;7.07;;;;;;;16.59;75.52;100786.19;10416315;28;20048;-72
2022/05/22 23:48:50;;;;;;;11.07;7.95;;;;;;;16.59;75.42;100767.91;10400330;28;20366;-73
2022/05/22 23:53:50;;;;;;;8.95;8.05;;;;;;;16.52;76.57;100750.78;10418449;28;20069;-73
2022/05/22 23:58:52;;;;;;;15.45;7.82;;;;;;;16.46;78.38;100752.59;10416317;28;20026;-72
